Time;durP1;ratioP1;P1;durP2;ratioP2;P2;SDS_P1;SDS_P2;PMS_P1;PMS_P2;Temp;Humidity;BMP_temperature;BMP_pressure;BME280_temperature;BME280_humidity;BME280_pressure;Samples;Min_cycle;Max_cycle;Signal;HPM_P1;HPM_P2
2022/05/14 00:00:52;;;;;;;27.57;8.23;;;17.10;45.10;;;;;;5002311;28;20512;-72
2022/05/14 00:03:18;;;;;;;17.83;9.23;;;17.20;45.00;;;;;;5005694;28;20512;-72
2022/05/14 00:05:44;;;;;;;16.63;9.30;;;17.30;45.20;;;;;;4991790;28;20547;-72
2022/05/14 00:08:11;;;;;;;17.83;10.37;;;17.10;46.80;;;;;;5002675;28;20300;-72
2022/05/14 00:13:03;;;;;;;17.03;9.63;;;17.10;46.70;;;;;;4992523;28;20908;-72
2022/05/14 00:13:24;;;;;;;13.97;10.40;;;17.00;47.60;;;;;;4991704;28;20413;-72
2022/05/14 00:15:51;;;;;;;20.03;10.80;;;17.00;47.90;;;;;;4975477;28;20457;-72
2022/05/14 00:18:17;;;;;;;17.90;10.50;;;16.90;48.70;;;;;;5002899;28;20451;-72
2022/05/14 00:20:43;;;;;;;22.53;10.90;;;16.90;47.80;;;;;;5004388;28;20433;-72
2022/05/14 00:23:08;;;;;;;16.60;10.07;;;16.70;47.60;;;;;;5000438;28;20475;-72
2022/05/14 00:25:35;;;;;;;26.63;11.50;;;16.80;49.10;;;;;;4990724;28;20213;-72
2022/05/14 00:28:02;;;;;;;21.47;9.90;;;16.80;49.70;;;;;;4995908;28;20699;-72
2022/05/14 00:30:29;;;;;;;23.50;9.83;;;16.70;49.70;;;;;;4998860;28;20486;-73
2022/05/14 00:32:55;;;;;;;23.97;9.20;;;16.70;50.00;;;;;;4998169;28;20462;-72
2022/05/14 00:35:21;;;;;;;23.73;10.40;;;16.60;50.00;;;;;;4991576;28;20448;-72
2022/05/14 00:37:47;;;;;;;21.60;10.33;;;16.60;49.10;;;;;;4991208;28;20201;-72
2022/05/14 00:40:27;;;;;;;18.80;9.80;;;16.70;49.20;;;;;;5000661;28;20436;-72
2022/05/14 00:42:54;;;;;;;17.87;9.30;;;16.70;49.50;;;;;;5011743;28;20481;-72
2022/05/14 00:45:21;;;;;;;14.17;8.70;;;16.60;48.90;;;;;;5002209;28;20464;-73
2022/05/14 00:47:51;;;;;;;18.23;9.63;;;16.50;48.50;;;;;;5003444;28;20535;-72
2022/05/14 00:50:42;;;;;;;13.73;9.10;;;16.40;48.70;;;;;;5000513;28;20435;-72
2022/05/14 00:53:10;;;;;;;17.30;7.97;;;16.40;49.30;;;;;;4993977;28;20443;-73
2022/05/14 00:55:38;;;;;;;11.67;7.90;;;16.40;48.10;;;;;;4998908;28;20539;-73
2022/05/14 00:58:06;;;;;;;15.40;8.10;;;16.40;48.80;;;;;;5037223;23;20504;-71
2022/05/14 01:00:32;;;;;;;14.00;7.40;;;16.30;49.30;;;;;;4997933;28;20427;-71
2022/05/14 01:02:58;;;;;;;13.40;7.47;;;16.20;48.90;;;;;;4994587;28;20472;-71
2022/05/14 01:05:24;;;;;;;10.00;7.23;;;16.20;48.90;;;;;;4993785;28;20546;-71
2022/05/14 01:07:54;;;;;;;15.70;7.47;;;16.30;47.90;;;;;;5001880;28;20810;-71
2022/05/14 01:10:23;;;;;;;11.40;6.90;;;16.30;48.50;;;;;;4992900;28;20519;-71
2022/05/14 01:12:57;;;;;;;26.87;7.23;;;16.30;48.20;;;;;;4995430;28;20417;-71
2022/05/14 01:15:36;;;;;;;19.33;7.30;;;16.40;49.00;;;;;;4972994;28;20406;-71
2022/05/14 01:18:02;;;;;;;13.57;6.83;;;16.20;49.70;;;;;;4976369;28;21026;-71
2022/05/14 01:20:28;;;;;;;18.73;7.73;;;16.10;51.00;;;;;;4996355;28;20436;-71
2022/05/14 01:23:24;;;;;;;15.00;7.37;;;16.20;49.10;;;;;;4994696;28;20946;-71
2022/05/14 01:28:49;;;;;;;11.20;6.73;;;16.20;49.50;;;;;;4973158;28;21067;-71
2022/05/14 01:31:14;;;;;;;10.70;7.40;;;16.10;48.00;;;;;;4995325;28;20443;-71
2022/05/14 01:33:40;;;;;;;10.63;7.23;;;16.10;49.20;;;;;;4995782;28;20188;-71
2022/05/14 01:36:08;;;;;;;22.67;7.57;;;16.00;49.00;;;;;;5000509;28;20622;-71
2022/05/14 01:38:33;;;;;;;16.13;7.50;;;16.00;49.10;;;;;;5001623;28;20210;-71
2022/05/14 01:40:59;;;;;;;11.50;7.87;;;15.90;49.40;;;;;;4992294;28;20459;-71
2022/05/14 01:43:25;;;;;;;16.73;8.00;;;16.00;49.50;;;;;;4994035;28;20822;-71
2022/05/14 01:45:51;;;;;;;38.40;8.00;;;16.10;49.00;;;;;;4995504;28;20456;-71
2022/05/14 01:48:17;;;;;;;12.23;8.27;;;15.90;49.30;;;;;;5010702;28;20446;-71
2022/05/14 01:50:42;;;;;;;15.53;7.63;;;16.00;49.70;;;;;;4983060;28;20678;-71
2022/05/14 01:53:09;;;;;;;14.70;7.40;;;16.00;49.90;;;;;;5002499;28;20804;-71
2022/05/14 01:55:35;;;;;;;15.43;7.83;;;15.90;49.50;;;;;;4976060;28;20215;-71
2022/05/14 01:58:36;;;;;;;15.23;8.50;;;15.90;48.90;;;;;;4975789;28;20468;-71
2022/05/14 02:00:46;;;;;;;16.70;7.60;;;15.80;50.00;;;;;;4976634;28;20437;-71
2022/05/14 02:03:12;;;;;;;14.37;7.97;;;15.90;48.60;;;;;;5001039;28;20496;-71
2022/05/14 02:05:38;;;;;;;15.10;7.30;;;15.80;48.60;;;;;;5007184;28;20215;-71
2022/05/14 02:08:03;;;;;;;12.67;6.80;;;15.70;49.80;;;;;;5014741;28;20626;-71
2022/05/14 02:10:29;;;;;;;15.57;7.23;;;15.60;49.90;;;;;;5006911;28;20218;-71
2022/05/14 02:12:55;;;;;;;16.47;6.50;;;15.60;50.20;;;;;;4997015;28;20193;-71
2022/05/14 02:15:21;;;;;;;14.47;7.27;;;15.80;48.90;;;;;;4996110;28;20187;-71
2022/05/14 02:17:47;;;;;;;11.87;7.30;;;15.70;49.30;;;;;;4994949;28;20496;-71
2022/05/14 02:20:12;;;;;;;11.30;8.23;;;15.60;49.10;;;;;;5002340;28;20193;-71
2022/05/14 02:22:38;;;;;;;17.63;8.30;;;15.60;49.50;;;;;;5003484;28;20588;-71
2022/05/14 02:25:04;;;;;;;12.20;7.70;;;15.60;50.70;;;;;;5000809;28;20208;-71
2022/05/14 02:27:30;;;;;;;14.43;7.17;;;15.50;50.60;;;;;;4993367;28;20198;-71
2022/05/14 02:29:56;;;;;;;19.63;7.47;;;15.60;49.50;;;;;;4984723;28;20488;-71
2022/05/14 02:32:26;;;;;;;9.80;7.60;;;15.60;50.20;;;;;;4975970;28;20239;-71
2022/05/14 02:34:52;;;;;;;10.07;7.20;;;15.60;51.00;;;;;;4974520;28;20238;-71
2022/05/14 02:37:20;;;;;;;14.63;7.30;;;15.50;50.90;;;;;;5002457;28;20434;-70
2022/05/14 02:39:46;;;;;;;17.23;7.50;;;15.50;51.20;;;;;;4985224;28;20434;-71
2022/05/14 02:42:12;;;;;;;16.80;7.90;;;15.50;50.60;;;;;;5008975;28;20433;-71
2022/05/14 02:44:37;;;;;;;15.60;7.50;;;15.50;49.60;;;;;;4974548;28;20950;-71
2022/05/14 02:47:03;;;;;;;12.77;7.33;;;15.60;50.50;;;;;;4978548;28;20509;-71
2022/05/14 02:49:29;;;;;;;15.60;8.20;;;15.40;49.80;;;;;;4979254;28;20206;-71
2022/05/14 02:51:55;;;;;;;16.30;7.57;;;15.40;50.80;;;;;;4997805;28;20427;-71
2022/05/14 02:54:20;;;;;;;18.57;7.40;;;15.40;50.30;;;;;;4981854;28;20185;-71
2022/05/14 02:56:46;;;;;;;15.50;7.60;;;15.40;50.30;;;;;;4974792;28;20292;-71
2022/05/14 02:59:12;;;;;;;21.27;7.70;;;15.30;51.40;;;;;;4991987;28;20195;-71
2022/05/14 03:01:47;;;;;;;16.87;9.33;;;15.30;50.20;;;;;;5000071;28;20607;-71
2022/05/14 03:04:22;;;;;;;18.67;9.30;;;15.20;50.90;;;;;;4986838;28;20957;-71
2022/05/14 03:06:49;;;;;;;14.80;8.60;;;15.20;52.10;;;;;;4974937;28;20432;-71
2022/05/14 03:09:15;;;;;;;13.80;8.30;;;15.30;51.90;;;;;;4981339;28;20435;-71
2022/05/14 03:11:41;;;;;;;18.23;9.20;;;15.40;50.60;;;;;;4997589;28;20505;-71
2022/05/14 03:14:07;;;;;;;13.43;8.67;;;15.40;51.20;;;;;;5000308;28;20517;-71
2022/05/14 03:16:33;;;;;;;14.20;8.10;;;15.30;50.30;;;;;;5000727;28;20268;-71
2022/05/14 03:18:59;;;;;;;16.00;8.73;;;15.20;50.20;;;;;;4999438;28;20881;-71
2022/05/14 03:21:24;;;;;;;14.57;8.37;;;15.10;51.30;;;;;;5001109;28;20182;-71
2022/05/14 03:23:50;;;;;;;20.03;8.30;;;15.20;50.40;;;;;;4999947;28;20252;-71
2022/05/14 03:26:16;;;;;;;16.20;8.10;;;15.20;49.60;;;;;;5003960;28;20233;-71
2022/05/14 03:28:41;;;;;;;12.87;8.00;;;15.10;50.00;;;;;;4996018;28;20183;-71
2022/05/14 03:31:07;;;;;;;18.63;8.50;;;15.30;49.60;;;;;;4992608;28;20202;-71
2022/05/14 03:33:33;;;;;;;18.63;8.87;;;15.20;49.90;;;;;;5000091;28;20171;-71
2022/05/14 03:35:59;;;;;;;15.03;7.70;;;15.00;49.50;;;;;;4976558;28;20445;-71
2022/05/14 03:38:25;;;;;;;14.73;8.53;;;15.00;50.50;;;;;;5005130;28;20960;-71
2022/05/14 03:40:50;;;;;;;28.07;8.10;;;14.90;51.70;;;;;;5001368;28;20252;-71
2022/05/14 03:43:16;;;;;;;14.33;8.30;;;14.80;50.80;;;;;;4985988;28;20429;-71
2022/05/14 03:45:42;;;;;;;16.40;8.43;;;14.80;50.00;;;;;;5012457;28;20743;-71
2022/05/14 03:48:08;;;;;;;16.97;8.87;;;14.90;51.10;;;;;;4978424;28;20470;-71
2022/05/14 03:50:34;;;;;;;14.57;7.70;;;15.00;50.90;;;;;;4992288;28;20238;-71
2022/05/14 03:53:00;;;;;;;16.90;7.77;;;15.10;50.20;;;;;;4984107;28;20562;-71
2022/05/14 03:55:26;;;;;;;17.37;7.90;;;15.00;50.60;;;;;;5005042;28;20417;-71
2022/05/14 03:57:52;;;;;;;14.97;7.60;;;15.10;50.10;;;;;;4995270;28;20277;-71
2022/05/14 04:00:19;;;;;;;10.50;6.60;;;14.70;51.50;;;;;;4974877;28;20445;-69
2022/05/14 04:02:45;;;;;;;13.30;7.17;;;14.80;51.80;;;;;;4989025;28;20213;-69
2022/05/14 04:05:13;;;;;;;15.73;8.00;;;14.70;51.40;;;;;;5004199;28;20492;-69
2022/05/14 04:07:41;;;;;;;11.20;7.00;;;14.70;51.30;;;;;;4999401;28;20468;-69
2022/05/14 04:10:08;;;;;;;15.73;8.40;;;14.70;51.70;;;;;;4998541;28;20422;-70
2022/05/14 04:12:33;;;;;;;17.97;7.33;;;14.80;51.90;;;;;;4986896;28;21058;-70
2022/05/14 04:14:59;;;;;;;14.53;7.10;;;15.10;51.30;;;;;;4997662;28;20504;-70
2022/05/14 04:17:25;;;;;;;20.07;6.40;;;14.70;51.20;;;;;;5003979;28;20237;-71
2022/05/14 04:19:51;;;;;;;13.67;7.30;;;14.80;51.90;;;;;;4983777;28;20662;-71
2022/05/14 04:22:16;;;;;;;11.23;6.77;;;14.80;51.60;;;;;;4973284;28;20426;-71
2022/05/14 04:24:42;;;;;;;11.57;6.90;;;14.80;51.50;;;;;;4977518;28;20473;-70
2022/05/14 04:27:08;;;;;;;12.03;7.03;;;14.70;52.00;;;;;;4990807;28;20197;-70
2022/05/14 04:29:33;;;;;;;12.20;7.50;;;14.70;52.90;;;;;;4992584;28;20662;-70
2022/05/14 04:31:59;;;;;;;13.37;7.23;;;14.90;51.40;;;;;;4979039;28;20259;-72
2022/05/14 04:34:25;;;;;;;12.80;7.57;;;15.00;51.20;;;;;;4994785;28;20182;-72
2022/05/14 04:36:50;;;;;;;14.10;7.60;;;15.10;51.50;;;;;;4996368;28;20265;-72
2022/05/14 04:39:16;;;;;;;13.53;7.23;;;15.10;51.90;;;;;;5004354;28;20182;-73
2022/05/14 04:41:42;;;;;;;12.87;7.70;;;15.20;51.80;;;;;;5005554;28;20213;-73
2022/05/14 04:44:07;;;;;;;14.50;7.40;;;15.30;51.90;;;;;;4988379;28;20183;-73
2022/05/14 04:46:35;;;;;;;11.87;8.17;;;15.20;50.60;;;;;;5003869;28;20240;-72
2022/05/14 04:49:02;;;;;;;14.23;9.10;;;15.20;51.10;;;;;;5012056;28;20227;-73
2022/05/14 04:51:28;;;;;;;18.47;9.17;;;15.10;51.90;;;;;;4988547;28;20513;-73
2022/05/14 04:53:54;;;;;;;14.07;8.47;;;15.10;52.30;;;;;;4982214;28;20465;-73
2022/05/14 04:56:19;;;;;;;14.10;8.23;;;15.20;51.10;;;;;;4993129;28;20238;-73
2022/05/14 04:58:45;;;;;;;21.27;8.33;;;15.20;51.10;;;;;;4992721;28;20199;-73
2022/05/14 05:01:10;;;;;;;18.60;8.80;;;15.30;50.60;;;;;;5003966;28;20245;-72
2022/05/14 05:03:36;;;;;;;22.20;11.50;;;15.20;50.90;;;;;;4998257;28;20762;-72
2022/05/14 05:06:02;;;;;;;17.07;13.23;;;14.90;51.40;;;;;;5004340;28;20230;-72
2022/05/14 05:08:31;;;;;;;25.37;11.00;;;14.90;53.00;;;;;;4972120;28;20193;-72
2022/05/14 05:10:57;;;;;;;16.13;9.70;;;15.20;51.10;;;;;;4988823;28;20750;-72
2022/05/14 05:13:25;;;;;;;14.20;9.40;;;15.40;51.30;;;;;;4988114;28;20439;-72
2022/05/14 05:15:52;;;;;;;16.07;9.50;;;15.50;50.40;;;;;;5010451;28;20457;-72
2022/05/14 05:18:19;;;;;;;14.77;9.33;;;15.70;50.80;;;;;;5011806;28;20518;-72
2022/05/14 05:20:48;;;;;;;18.90;10.00;;;15.80;48.90;;;;;;5007286;28;20432;-74
2022/05/14 05:23:16;;;;;;;23.33;14.73;;;15.90;48.40;;;;;;4987342;28;20434;-73
2022/05/14 05:25:42;;;;;;;20.43;12.27;;;15.90;47.60;;;;;;4977154;28;20484;-72
2022/05/14 05:28:08;;;;;;;29.23;12.30;;;15.70;48.40;;;;;;4995018;28;20784;-72
2022/05/14 05:30:34;;;;;;;20.90;11.47;;;15.70;48.50;;;;;;4993776;28;20424;-73
2022/05/14 05:33:00;;;;;;;22.30;11.80;;;15.80;50.00;;;;;;4979388;28;20496;-74
2022/05/14 05:35:26;;;;;;;17.93;10.57;;;16.10;49.50;;;;;;4998430;28;20440;-75
2022/05/14 05:37:52;;;;;;;14.57;10.40;;;16.00;47.70;;;;;;5018244;28;20223;-75
2022/05/14 05:40:18;;;;;;;19.80;9.43;;;16.20;47.50;;;;;;5021631;28;20834;-72
2022/05/14 05:42:44;;;;;;;25.10;8.60;;;16.00;46.70;;;;;;4992956;28;20186;-72
2022/05/14 05:45:13;;;;;;;14.57;9.30;;;16.00;47.40;;;;;;4983255;28;20469;-73
2022/05/14 05:47:38;;;;;;;17.97;10.87;;;16.00;45.90;;;;;;4999901;28;20970;-74
2022/05/14 05:50:05;;;;;;;20.47;9.97;;;15.80;48.10;;;;;;5004522;28;20496;-75
2022/05/14 05:52:32;;;;;;;21.13;9.83;;;15.50;50.20;;;;;;4977845;28;20179;-74
2022/05/14 05:57:43;;;;;;;25.80;8.10;;;15.90;47.40;;;;;;5006560;28;20982;-72
2022/05/14 06:00:12;;;;;;;26.60;8.67;;;15.90;46.30;;;;;;4999746;28;20459;-71
2022/05/14 06:02:38;;;;;;;14.53;7.13;;;16.00;49.10;;;;;;4977515;28;20986;-72
2022/05/14 06:05:05;;;;;;;11.60;6.93;;;15.80;47.50;;;;;;4991842;28;20477;-71
2022/05/14 06:07:32;;;;;;;22.33;7.53;;;15.80;49.00;;;;;;4995469;28;20673;-71
2022/05/14 06:09:58;;;;;;;16.97;7.30;;;15.70;49.30;;;;;;5014796;28;20416;-71
2022/05/14 06:12:24;;;;;;;23.13;7.40;;;15.20;52.40;;;;;;5000515;28;20441;-71
2022/05/14 06:14:50;;;;;;;14.20;6.63;;;15.20;53.40;;;;;;4998584;28;20178;-70
2022/05/14 06:17:16;;;;;;;13.50;6.13;;;15.40;50.10;;;;;;4993072;28;20478;-70
2022/05/14 06:19:42;;;;;;;10.10;6.20;;;15.30;52.30;;;;;;4991534;28;20189;-71
2022/05/14 06:22:08;;;;;;;27.13;7.60;;;15.70;50.10;;;;;;5005736;28;20422;-70
2022/05/14 06:24:36;;;;;;;22.93;7.63;;;15.50;50.10;;;;;;5003146;28;21009;-70
2022/05/14 06:27:01;;;;;;;17.63;6.63;;;15.30;50.70;;;;;;4982423;28;20453;-71
2022/05/14 06:29:29;;;;;;;18.20;7.40;;;15.40;50.60;;;;;;4998473;28;20461;-72
2022/05/14 06:31:55;;;;;;;8.77;6.13;;;16.10;50.00;;;;;;4994302;28;20197;-70
2022/05/14 06:34:20;;;;;;;13.83;7.30;;;16.10;47.80;;;;;;5002862;28;20412;-74
2022/05/14 06:36:46;;;;;;;20.90;7.10;;;16.30;50.00;;;;;;4994212;28;20465;-72
2022/05/14 06:39:12;;;;;;;8.13;5.77;;;16.70;44.70;;;;;;4988240;28;20193;-72
2022/05/14 06:41:38;;;;;;;19.33;9.20;;;16.00;46.10;;;;;;4979467;28;20629;-71
2022/05/14 06:44:04;;;;;;;22.33;7.50;;;15.50;48.40;;;;;;4996783;28;20181;-72
2022/05/14 06:46:30;;;;;;;17.23;8.27;;;16.40;46.60;;;;;;5006340;28;20857;-71
2022/05/14 06:48:56;;;;;;;13.60;7.77;;;16.50;44.80;;;;;;5013897;28;20428;-72
2022/05/14 06:51:27;;;;;;;15.43;7.43;;;16.80;47.10;;;;;;4998817;28;20197;-71
2022/05/14 06:53:55;;;;;;;20.07;7.80;;;16.60;44.80;;;;;;4988035;28;20585;-72
2022/05/14 06:56:23;;;;;;;17.33;6.30;;;16.70;47.10;;;;;;4975090;28;20419;-72
2022/05/14 06:58:50;;;;;;;12.90;5.70;;;17.00;45.20;;;;;;4974706;28;20455;-72
2022/05/14 07:01:17;;;;;;;15.87;6.27;;;16.20;45.70;;;;;;4991051;28;20431;-72
2022/05/14 07:06:40;;;;;;;12.43;6.07;;;16.60;47.20;;;;;;4975542;28;20465;-72
2022/05/14 07:09:15;;;;;;;11.13;5.80;;;17.40;44.40;;;;;;4974536;28;20776;-72
2022/05/14 07:11:43;;;;;;;17.83;6.67;;;17.40;42.20;;;;;;4988944;28;20437;-73
2022/05/14 07:14:11;;;;;;;15.23;6.80;;;17.00;42.10;;;;;;4996237;28;20501;-72
2022/05/14 07:16:39;;;;;;;13.27;7.20;;;17.10;44.40;;;;;;5001052;28;20457;-73
2022/05/14 07:19:08;;;;;;;25.47;6.30;;;17.50;41.90;;;;;;5002200;28;20947;-74
2022/05/14 07:21:36;;;;;;;9.90;5.70;;;17.40;41.90;;;;;;4988828;28;20467;-71
2022/05/14 07:24:04;;;;;;;14.03;5.17;;;17.10;43.30;;;;;;4966360;28;20433;-70
2022/05/14 07:26:30;;;;;;;17.80;6.83;;;17.20;42.00;;;;;;5000596;28;20501;-71
2022/05/14 07:28:55;;;;;;;13.53;6.33;;;17.30;42.20;;;;;;4982528;28;20609;-71
2022/05/14 07:31:21;;;;;;;11.63;6.00;;;17.50;42.50;;;;;;5004531;28;20183;-72
2022/05/14 07:33:46;;;;;;;10.50;5.60;;;17.50;43.10;;;;;;5001940;28;20201;-71
2022/05/14 07:36:18;;;;;;;12.97;6.23;;;17.70;42.70;;;;;;5002867;28;20601;-71
2022/05/14 07:38:44;;;;;;;11.73;6.70;;;18.30;40.10;;;;;;4992619;28;20191;-71
2022/05/14 07:41:11;;;;;;;10.50;5.47;;;18.10;39.90;;;;;;4996049;28;20930;-72
2022/05/14 07:43:39;;;;;;;9.60;5.50;;;18.30;39.30;;;;;;4994234;28;20446;-71
2022/05/14 07:46:09;;;;;;;10.53;5.73;;;18.60;38.40;;;;;;4989519;28;20905;-72
2022/05/14 07:48:37;;;;;;;14.23;5.60;;;18.10;40.00;;;;;;4976114;28;20959;-72
2022/05/14 07:51:06;;;;;;;8.30;5.47;;;18.40;40.30;;;;;;4997916;28;20452;-71
2022/05/14 07:53:32;;;;;;;10.60;5.80;;;18.80;38.70;;;;;;4989209;28;20530;-73
2022/05/14 07:56:02;;;;;;;9.47;5.33;;;18.30;40.10;;;;;;4994678;28;20450;-72
2022/05/14 07:58:29;;;;;;;9.93;5.47;;;18.90;39.00;;;;;;4993167;28;20455;-71
2022/05/14 08:00:55;;;;;;;13.00;5.03;;;18.40;38.60;;;;;;4975659;28;20432;-72
2022/05/14 08:03:24;;;;;;;12.13;5.93;;;18.30;38.00;;;;;;4993189;28;20580;-71
2022/05/14 08:05:50;;;;;;;14.53;6.53;;;18.30;38.30;;;;;;4991641;28;20463;-71
2022/05/14 08:08:16;;;;;;;12.87;6.20;;;19.00;38.40;;;;;;4993063;28;20459;-72
2022/05/14 08:10:43;;;;;;;10.30;5.57;;;19.70;36.90;;;;;;4993068;28;20440;-75
2022/05/14 08:13:14;;;;;;;11.33;5.93;;;19.60;35.60;;;;;;4992798;28;20424;-71
2022/05/14 08:15:40;;;;;;;11.53;6.70;;;19.80;36.30;;;;;;4993149;28;20459;-72
2022/05/14 08:18:06;;;;;;;9.30;6.07;;;19.50;35.90;;;;;;4978171;28;20483;-72
2022/05/14 08:20:32;;;;;;;14.77;6.20;;;20.30;35.60;;;;;;4973587;28;20269;-71
2022/05/14 08:25:42;;;;;;;9.83;5.90;;;20.20;30.00;;;;;;4973488;28;20210;-71
2022/05/14 08:28:07;;;;;;;12.70;5.80;;;20.50;33.70;;;;;;4980720;28;20453;-73
2022/05/14 08:30:34;;;;;;;10.13;5.83;;;21.00;31.90;;;;;;4993246;28;20181;-70
2022/05/14 08:33:01;;;;;;;9.00;4.87;;;20.40;32.10;;;;;;4992936;28;20173;-71
2022/05/14 08:35:28;;;;;;;9.20;5.77;;;19.70;31.80;;;;;;4992565;28;20451;-70
2022/05/14 08:37:54;;;;;;;13.10;5.40;;;19.60;32.90;;;;;;4990593;28;20432;-71
2022/05/14 08:40:22;;;;;;;11.97;5.87;;;19.50;30.90;;;;;;4986901;28;20437;-71
2022/05/14 08:42:55;;;;;;;9.37;4.50;;;20.30;30.90;;;;;;4973052;28;20756;-71
2022/05/14 08:45:24;;;;;;;8.70;4.50;;;20.80;30.60;;;;;;4973141;28;20514;-71
2022/05/14 08:48:02;;;;;;;8.40;4.90;;;20.20;30.80;;;;;;4972857;28;20860;-71
2022/05/14 08:50:35;;;;;;;9.53;5.03;;;20.40;30.40;;;;;;4988317;28;20447;-71
2022/05/14 08:53:04;;;;;;;10.07;4.53;;;20.90;30.00;;;;;;4974926;28;20774;-71
2022/05/14 08:55:38;;;;;;;13.73;4.17;;;21.60;27.10;;;;;;4992286;28;20862;-71
2022/05/14 08:58:19;;;;;;;9.90;3.97;;;21.30;26.90;;;;;;4992343;28;20485;-71
2022/05/14 09:00:44;;;;;;;6.03;2.87;;;20.60;26.50;;;;;;4990028;28;20425;-70
2022/05/14 09:03:10;;;;;;;8.33;2.90;;;21.30;24.00;;;;;;4989897;28;20477;-71
2022/05/14 09:05:37;;;;;;;7.23;3.00;;;21.00;24.60;;;;;;4992009;28;20254;-70
2022/05/14 09:08:03;;;;;;;8.50;3.30;;;20.80;25.00;;;;;;4992326;28;20215;-71
2022/05/14 09:10:40;;;;;;;7.40;3.30;;;20.80;25.50;;;;;;4992162;28;20818;-71
2022/05/14 09:13:11;;;;;;;10.50;3.50;;;21.80;24.70;;;;;;4976913;28;20435;-71
2022/05/14 09:15:46;;;;;;;7.90;3.10;;;22.00;23.30;;;;;;4972759;28;20425;-71
2022/05/14 09:18:20;;;;;;;6.43;3.10;;;21.90;24.70;;;;;;4973006;28;20469;-71
2022/05/14 09:20:55;;;;;;;8.10;2.97;;;22.00;25.00;;;;;;4972451;28;20490;-72
2022/05/14 09:23:44;;;;;;;11.70;3.77;;;21.50;24.90;;;;;;4973827;28;20454;-71
2022/05/14 09:26:22;;;;;;;8.03;3.20;;;21.40;26.30;;;;;;4971763;28;20535;-71
2022/05/14 09:28:52;;;;;;;25.03;3.77;;;21.50;26.30;;;;;;4972791;28;20425;-71
2022/05/14 09:31:25;;;;;;;10.97;3.70;;;21.50;26.10;;;;;;4972416;28;20413;-71
2022/05/14 09:34:03;;;;;;;21.23;3.40;;;21.30;26.70;;;;;;4980778;28;20480;-71
2022/05/14 09:36:30;;;;;;;6.60;3.57;;;21.10;27.00;;;;;;4991973;28;20410;-72
2022/05/14 09:39:09;;;;;;;13.87;4.10;;;21.80;26.70;;;;;;4991856;28;20417;-71
2022/05/14 09:41:42;;;;;;;8.80;3.87;;;22.80;24.80;;;;;;4991825;28;20458;-72
2022/05/14 09:44:15;;;;;;;13.60;3.70;;;23.30;25.30;;;;;;4984798;28;20958;-72
2022/05/14 09:46:41;;;;;;;11.03;3.67;;;23.50;25.80;;;;;;4972254;28;20449;-73
2022/05/14 09:49:09;;;;;;;15.10;3.80;;;23.90;26.00;;;;;;4972458;28;20408;-72
2022/05/14 09:51:37;;;;;;;16.70;3.90;;;23.90;23.10;;;;;;4972307;28;20743;-72
2022/05/14 09:54:18;;;;;;;12.10;4.00;;;23.90;25.50;;;;;;4972302;28;20779;-72
2022/05/14 09:57:11;;;;;;;11.83;3.80;;;24.40;24.10;;;;;;4955278;28;20465;-71
2022/05/14 10:00:05;;;;;;;7.83;3.63;;;24.40;24.60;;;;;;4972249;28;20889;-72
2022/05/14 10:02:36;;;;;;;9.70;4.07;;;23.90;25.80;;;;;;4972321;28;20422;-72
2022/05/14 10:05:47;;;;;;;11.53;5.07;;;24.20;24.30;;;;;;4971673;28;20458;-72
2022/05/14 10:08:38;;;;;;;9.53;4.43;;;24.70;24.70;;;;;;4987632;23;21048;-75
2022/05/14 10:11:16;;;;;;;9.77;3.67;;;24.30;24.20;;;;;;4989587;28;20511;-74
2022/05/14 10:13:47;;;;;;;7.77;3.70;;;24.00;24.00;;;;;;5012581;28;20481;-75
2022/05/14 10:16:34;;;;;;;8.20;3.83;;;23.70;24.20;;;;;;5006536;28;20522;-74
2022/05/14 10:19:00;;;;;;;14.00;3.80;;;24.30;23.40;;;;;;4975411;28;20426;-74
2022/05/14 10:21:40;;;;;;;12.00;4.20;;;23.20;24.70;;;;;;4990050;28;20867;-75
2022/05/14 10:27:29;;;;;;;11.37;4.53;;;23.40;23.80;;;;;;4982804;28;20487;-75
2022/05/14 10:30:17;;;;;;;9.10;4.10;;;22.60;25.80;;;;;;4986372;28;20517;-74
2022/05/14 10:32:47;;;;;;;7.20;4.37;;;23.20;24.80;;;;;;4983170;28;20440;-74
2022/05/14 10:35:30;;;;;;;7.63;4.50;;;23.30;25.40;;;;;;4986898;28;20815;-76
2022/05/14 10:38:04;;;;;;;6.73;3.97;;;23.30;25.20;;;;;;4990383;28;20444;-74
2022/05/14 10:40:37;;;;;;;13.13;4.20;;;23.00;24.90;;;;;;4992247;28;20417;-75
2022/05/14 10:43:32;;;;;;;8.13;4.27;;;22.40;25.60;;;;;;5005881;28;20417;-74
2022/05/14 10:45:58;;;;;;;9.13;4.07;;;22.30;26.60;;;;;;4993964;28;20475;-74
2022/05/14 10:48:30;;;;;;;7.83;4.10;;;23.10;24.40;;;;;;4993171;28;20463;-74
2022/05/14 10:50:56;;;;;;;9.90;4.40;;;23.90;25.90;;;;;;4992334;28;20535;-74
2022/05/14 10:53:22;;;;;;;15.37;4.07;;;24.20;24.90;;;;;;4991911;28;20548;-76
2022/05/14 10:56:05;;;;;;;8.47;4.30;;;24.90;23.30;;;;;;4992508;28;20440;-74
2022/05/14 10:58:45;;;;;;;9.53;4.10;;;25.30;23.50;;;;;;4987391;28;20463;-74
2022/05/14 11:01:30;;;;;;;9.13;4.30;;;25.70;21.60;;;;;;4992925;28;20448;-74
2022/05/14 11:04:32;;;;;;;7.27;4.40;;;25.60;20.60;;;;;;4994009;28;20447;-74
2022/05/14 11:07:04;;;;;;;8.10;3.80;;;25.00;22.20;;;;;;4990855;28;20432;-75
2022/05/14 11:09:35;;;;;;;8.73;4.20;;;23.60;21.80;;;;;;4992839;28;20499;-74
2022/05/14 11:12:27;;;;;;;10.00;4.23;;;23.80;22.80;;;;;;4990084;28;20974;-74
2022/05/14 11:14:55;;;;;;;9.37;4.30;;;24.50;22.40;;;;;;4989383;28;20428;-74
2022/05/14 11:17:28;;;;;;;11.40;4.00;;;24.70;20.70;;;;;;4991810;28;20447;-74
2022/05/14 11:20:05;;;;;;;12.03;4.00;;;25.10;21.10;;;;;;4993361;28;20456;-74
2022/05/14 11:22:35;;;;;;;6.20;3.80;;;25.70;22.40;;;;;;4981820;28;20447;-74
2022/05/14 11:25:22;;;;;;;12.13;3.43;;;27.60;20.10;;;;;;4992597;28;20827;-73
2022/05/14 11:28:32;;;;;;;6.93;3.53;;;26.70;16.90;;;;;;4986901;28;20479;-74
2022/05/14 11:31:14;;;;;;;6.67;3.30;;;26.00;18.60;;;;;;4943096;29;20447;-75
2022/05/14 11:33:40;;;;;;;6.00;3.00;;;27.00;16.40;;;;;;4948587;29;20477;-74
2022/05/14 11:36:11;;;;;;;7.07;3.57;;;28.10;15.00;;;;;;4940877;28;20437;-74
2022/05/14 11:38:39;;;;;;;8.27;3.20;;;27.70;15.80;;;;;;4930975;29;20469;-74
2022/05/14 11:41:05;;;;;;;6.87;3.00;;;27.40;16.70;;;;;;4941242;29;20928;-74
2022/05/14 11:43:43;;;;;;;6.10;3.27;;;26.10;17.40;;;;;;4946974;29;20522;-74
2022/05/14 11:46:41;;;;;;;7.57;3.33;;;27.00;16.90;;;;;;4944594;28;20210;-74
2022/05/14 11:49:09;;;;;;;8.37;3.33;;;26.90;17.60;;;;;;4946695;28;20462;-74
2022/05/14 11:51:56;;;;;;;5.73;3.23;;;29.60;15.20;;;;;;4943790;29;20442;-74
2022/05/14 11:54:36;;;;;;;6.83;2.87;;;31.50;13.70;;;;;;4948019;29;20911;-76
2022/05/14 11:57:07;;;;;;;4.73;2.50;;;30.90;14.10;;;;;;4941920;29;20441;-76
2022/05/14 11:59:53;;;;;;;7.53;2.70;;;30.80;12.40;;;;;;4940029;28;20457;-75
2022/05/14 12:02:48;;;;;;;6.70;3.10;;;29.40;14.00;;;;;;4947637;29;20641;-74
2022/05/14 12:05:23;;;;;;;8.37;2.97;;;29.00;14.30;;;;;;4928356;29;20471;-74
2022/05/14 12:08:10;;;;;;;4.97;2.80;;;28.90;14.40;;;;;;4973793;28;20943;-74
2022/05/14 12:10:48;;;;;;;7.00;3.23;;;28.50;14.90;;;;;;4993361;28;20954;-76
2022/05/14 12:13:43;;;;;;;5.10;2.70;;;30.20;13.20;;;;;;4991740;28;20425;-75
2022/05/14 12:16:11;;;;;;;5.43;3.00;;;33.00;11.30;;;;;;4982185;28;20528;-74
2022/05/14 12:18:41;;;;;;;7.40;2.90;;;32.10;9.10;;;;;;4990264;28;21069;-75
2022/05/14 12:21:08;;;;;;;6.00;2.87;;;30.70;12.10;;;;;;4991324;28;20444;-74
2022/05/14 12:23:46;;;;;;;5.57;2.80;;;30.90;10.00;;;;;;4990711;28;20444;-74
2022/05/14 12:26:25;;;;;;;11.17;3.17;;;32.40;8.50;;;;;;4987553;28;20982;-75
2022/05/14 12:28:57;;;;;;;4.53;2.60;;;32.70;12.00;;;;;;4990180;28;20863;-74
2022/05/14 12:34:15;;;;;;;5.13;2.80;;;29.20;10.10;;;;;;4989791;28;20507;-76
2022/05/14 12:36:52;;;;;;;5.90;2.83;;;28.20;10.70;;;;;;5001466;28;20432;-76
2022/05/14 12:39:31;;;;;;;5.03;2.97;;;28.40;13.70;;;;;;4991213;28;20556;-75
2022/05/14 12:42:01;;;;;;;6.70;3.00;;;28.90;9.40;;;;;;4989092;28;20439;-74
2022/05/14 12:44:48;;;;;;;6.50;2.70;;;28.30;11.30;;;;;;4989450;28;20963;-74
2022/05/14 12:47:26;;;;;;;5.40;2.70;;;27.90;11.30;;;;;;4987992;28;20502;-75
2022/05/14 12:49:52;;;;;;;5.00;2.53;;;28.10;11.10;;;;;;4987269;28;20456;-76
2022/05/14 12:52:22;;;;;;;5.53;4.00;;;29.40;11.10;;;;;;4987284;28;20953;-74
2022/05/14 12:54:51;;;;;;;4.83;2.70;;;28.40;8.90;;;;;;4988253;28;20491;-75
2022/05/14 12:57:18;;;;;;;5.03;2.67;;;27.60;7.90;;;;;;4990044;28;20440;-74
2022/05/14 12:59:44;;;;;;;10.53;2.57;;;27.10;10.20;;;;;;4989827;28;20457;-75
2022/05/14 13:02:23;;;;;;;14.10;2.70;;;27.10;9.00;;;;;;4989925;28;20448;-73
2022/05/14 13:05:03;;;;;;;3.40;2.30;;;28.40;8.00;;;;;;4989431;28;20292;-73
2022/05/14 13:07:30;;;;;;;4.93;2.20;;;28.50;9.00;;;;;;4983077;28;20870;-76
2022/05/14 13:09:57;;;;;;;4.37;2.10;;;29.70;9.70;;;;;;4984613;28;20585;-76